MRFP weather

Frutez - Pital Airport
San Carlos, Alajuela, Costa Rica

Public forecast

Using degrees Celsius for public forecast. Weather courtesy of forecast.io.

Closest aviation weather report (METAR) to Frutez - Pital Airport

Closest report is Juan Santamaria International Airport, 28.8 nm (53.4 km) SSE. Retrieved 2020/07/02 13:00 UTC (2 minutes ago):

MROC 021300Z 10007KT CAVOK 23/18 A2999 NOSIG

Closest aviation forecast (TAF) to Frutez - Pital Airport

Closest forecast is Juan Santamaria International Airport, 28.8 nm (53.4 km) SSE. Retrieved 2020/07/02 12:18 UTC (44 minutes ago):

TAF MROC 021100Z 0212/0312 08006KT 9999 FEW035 BKN120 TX29/0218Z TN19/0311Z BECMG 0216/0218 25008KT TEMPO 0219/0222 5000 TSRA SCT015CB TEMPO 0223/0303 VRB02KT 5000 RA BR BKN020 BECMG 0304/0306 09004KT